Time;durP1;ratioP1;P1;durP2;ratioP2;P2;SDS_P1;SDS_P2;PMS_P1;PMS_P2;Temp;Humidity;BMP_temperature;BMP_pressure;BME280_temperature;BME280_humidity;BME280_pressure;Samples;Min_cycle;Max_cycle;Signal;HPM_P1;HPM_P2
2023/05/30 00:01:43;;;;;;;0.10;0.10;;;;;;;12.78;60.68;102866.78;5097341;28;20545;-78
2023/05/30 00:04:09;;;;;;;0.10;0.10;;;;;;;12.75;59.96;102869.41;5098608;28;20097;-79
2023/05/30 00:06:36;;;;;;;0.35;0.35;;;;;;;12.71;60.26;102869.38;5089401;28;20092;-80
2023/05/30 00:09:02;;;;;;;0.10;0.10;;;;;;;12.69;60.64;102865.84;5086453;28;20016;-79
2023/05/30 00:11:29;;;;;;;0.10;0.10;;;;;;;12.66;60.48;102863.16;5088111;28;20092;-80
2023/05/30 00:13:55;;;;;;;0.10;0.10;;;;;;;12.64;60.76;102863.16;5086843;28;20021;-80
2023/05/30 00:16:22;;;;;;;0.10;0.10;;;;;;;12.64;59.47;102864.94;5085668;28;20029;-80
2023/05/30 00:18:48;;;;;;;0.10;0.10;;;;;;;12.61;60.65;102864.03;5090264;28;20092;-80
2023/05/30 00:21:17;;;;;;;0.25;0.25;;;;;;;12.61;60.77;102861.38;5088760;28;20021;-80
2023/05/30 00:23:45;;;;;;;0.10;0.10;;;;;;;12.61;61.32;102869.34;5084679;28;20024;-80
2023/05/30 00:26:13;;;;;;;0.82;0.80;;;;;;;12.62;60.74;102868.47;5088156;28;20024;-80
2023/05/30 00:28:39;;;;;;;0.10;0.10;;;;;;;12.66;60.39;102873.81;5085592;28;20036;-79
2023/05/30 00:31:06;;;;;;;0.10;0.10;;;;;;;12.72;60.56;102876.47;5084921;28;20031;-81
2023/05/30 00:33:33;;;;;;;0.10;0.10;;;;;;;12.74;60.80;102880.03;5089509;28;20027;-80
2023/05/30 00:35:59;;;;;;;0.10;0.10;;;;;;;12.77;59.41;102883.59;5094483;28;20055;-80
2023/05/30 00:38:25;;;;;;;0.10;0.10;;;;;;;12.81;59.76;102886.25;5085966;28;20012;-79
2023/05/30 00:40:51;;;;;;;0.10;0.10;;;;;;;12.83;61.37;102877.41;5085276;28;20051;-80
2023/05/30 00:43:18;;;;;;;0.20;0.20;;;;;;;12.86;60.65;102882.75;5095749;28;20039;-80
2023/05/30 00:45:46;;;;;;;0.13;0.13;;;;;;;12.88;60.55;102878.31;5084510;28;20037;-79
2023/05/30 00:48:14;;;;;;;0.10;0.10;;;;;;;12.88;60.75;102880.09;5083456;28;20017;-79
2023/05/30 00:50:40;;;;;;;0.20;0.20;;;;;;;12.89;60.45;102884.53;5081946;28;20025;-80
2023/05/30 00:53:08;;;;;;;0.10;0.10;;;;;;;12.89;60.95;102896.03;5086831;28;20215;-80
2023/05/30 00:55:35;;;;;;;0.10;0.10;;;;;;;12.88;60.41;102883.63;5088533;28;20529;-80
2023/05/30 00:58:01;;;;;;;0.08;0.08;;;;;;;12.91;60.14;102877.41;5088819;28;20031;-79
2023/05/30 01:00:29;;;;;;;0.10;0.10;;;;;;;12.91;59.92;102881.00;5090960;28;20036;-79
2023/05/30 01:02:59;;;;;;;0.00;0.00;;;;;;;12.90;60.09;102881.00;5083011;28;20499;-79
2023/05/30 01:05:26;;;;;;;0.20;0.20;;;;;;;12.86;60.59;102869.44;5082903;28;20029;-80
2023/05/30 01:07:53;;;;;;;0.10;0.10;;;;;;;12.82;60.92;102878.28;5082333;28;20076;-80
2023/05/30 01:10:20;;;;;;;0.90;0.90;;;;;;;12.79;60.41;102887.16;5089932;28;20099;-80
2023/05/30 01:13:02;;;;;;;0.10;0.10;;;;;;;12.80;60.44;102880.06;5082793;28;20029;-80
2023/05/30 01:15:36;;;;;;;0.20;0.20;;;;;;;12.75;59.92;102887.16;5082599;28;20024;-80
2023/05/30 01:20:44;;;;;;;0.10;0.10;;;;;;;12.66;59.83;102877.38;5124660;27;20125;-77
2023/05/30 01:23:43;;;;;;;0.10;0.10;;;;;;;12.68;60.48;102882.69;5123556;28;20027;-78
2023/05/30 01:28:55;;;;;;;0.13;0.13;;;;;;;12.55;60.32;102874.66;5071981;28;20467;-76
2023/05/30 01:31:23;;;;;;;0.10;0.10;;;;;;;12.50;61.10;102871.09;5067639;28;20060;-77
2023/05/30 01:33:50;;;;;;;0.10;0.10;;;;;;;12.47;60.63;102881.69;5083118;28;20040;-76
2023/05/30 01:36:17;;;;;;;0.10;0.10;;;;;;;12.44;60.25;102877.25;5072601;28;20025;-77
2023/05/30 01:38:43;;;;;;;0.10;0.10;;;;;;;12.42;60.41;102883.44;5066000;28;20033;-79
2023/05/30 01:41:18;;;;;;;0.40;0.40;;;;;;;12.42;59.84;102872.81;5062478;28;20048;-79
2023/05/30 01:44:11;;;;;;;0.10;0.10;;;;;;;12.42;60.27;102873.72;5067398;28;20107;-78
2023/05/30 01:46:43;;;;;;;0.10;0.10;;;;;;;12.35;60.44;102876.31;5066413;28;20029;-78
2023/05/30 01:49:34;;;;;;;1.10;1.10;;;;;;;12.38;60.38;102879.00;5065026;28;20029;-79
2023/05/30 01:52:20;;;;;;;0.10;0.10;;;;;;;12.36;60.85;102883.41;5062702;28;20033;-78
2023/05/30 01:54:54;;;;;;;0.10;0.10;;;;;;;12.30;60.36;102890.47;5063137;28;20092;-80
2023/05/30 01:57:23;;;;;;;0.10;0.10;;;;;;;12.26;60.72;102883.38;5060899;28;20052;-77
2023/05/30 01:59:49;;;;;;;0.10;0.10;;;;;;;12.24;60.55;102879.81;5051961;28;20037;-79
2023/05/30 02:02:16;;;;;;;0.10;0.10;;;;;;;12.23;61.90;102885.13;5047549;28;20710;-80
2023/05/30 02:04:42;;;;;;;0.05;0.05;;;;;;;12.19;61.78;102886.00;5055108;28;20036;-78
2023/05/30 02:07:09;;;;;;;1.58;1.48;;;;;;;12.17;61.13;102893.94;5061625;28;20433;-79
2023/05/30 02:09:35;;;;;;;0.10;0.10;;;;;;;12.13;60.63;102892.16;5058455;28;20029;-78
2023/05/30 02:12:02;;;;;;;0.10;0.10;;;;;;;12.13;61.47;102897.47;5056577;28;20399;-80
2023/05/30 02:14:30;;;;;;;0.32;0.32;;;;;;;12.11;61.42;102893.91;5051936;28;20025;-79
2023/05/30 02:16:59;;;;;;;0.10;0.10;;;;;;;12.11;60.87;102896.56;5062831;28;20089;-77
2023/05/30 02:19:25;;;;;;;0.10;0.10;;;;;;;12.11;60.73;102899.22;5053165;28;20022;-79
2023/05/30 02:21:51;;;;;;;0.10;0.10;;;;;;;12.12;60.92;102895.69;5049120;28;20444;-80
2023/05/30 02:24:17;;;;;;;0.10;0.10;;;;;;;12.12;61.64;102912.53;5060181;28;20083;-80
2023/05/30 02:26:43;;;;;;;0.10;0.10;;;;;;;12.13;61.14;102918.72;5056686;28;20122;-80
2023/05/30 02:29:10;;;;;;;0.10;0.10;;;;;;;12.14;61.56;102916.06;5061242;28;20037;-80
2023/05/30 02:31:36;;;;;;;0.10;0.10;;;;;;;12.17;61.07;102919.63;5062307;28;20503;-79
2023/05/30 02:34:02;;;;;;;0.10;0.10;;;;;;;12.20;61.12;102909.91;5061180;28;20132;-81
2023/05/30 02:36:28;;;;;;;0.10;0.10;;;;;;;12.26;61.69;102909.03;5048858;28;20022;-79
2023/05/30 02:38:55;;;;;;;0.10;0.10;;;;;;;12.33;62.01;102902.91;5044240;28;20114;-78
2023/05/30 02:41:22;;;;;;;0.10;0.10;;;;;;;12.39;62.61;102904.72;5043236;28;20041;-80
2023/05/30 02:43:49;;;;;;;0.10;0.10;;;;;;;12.44;62.55;102913.59;5044356;28;20022;-77
2023/05/30 02:46:15;;;;;;;0.00;0.00;;;;;;;12.48;62.27;102910.06;5045346;28;20017;-78
2023/05/30 02:48:41;;;;;;;0.03;0.03;;;;;;;12.52;62.14;102906.53;5044579;28;20033;-78
2023/05/30 02:51:07;;;;;;;0.10;0.10;;;;;;;12.59;61.47;102908.34;5042932;28;20406;-79
2023/05/30 02:53:33;;;;;;;0.00;0.00;;;;;;;12.68;61.38;102907.50;5029158;28;20093;-78
2023/05/30 02:55:59;;;;;;;0.10;0.10;;;;;;;12.75;61.52;102903.09;5045752;28;20091;-80
2023/05/30 02:58:26;;;;;;;0.10;0.10;;;;;;;12.82;61.65;102909.31;5047047;28;20034;-79
2023/05/30 03:00:52;;;;;;;0.10;0.10;;;;;;;12.87;61.30;102907.56;5035583;28;20063;-77
2023/05/30 03:03:19;;;;;;;0.00;0.00;;;;;;;12.94;60.74;102907.59;5034782;28;20048;-79
2023/05/30 03:05:46;;;;;;;0.10;0.10;;;;;;;13.00;61.13;102905.84;5037998;28;20032;-79
2023/05/30 03:08:13;;;;;;;0.20;0.20;;;;;;;13.07;60.83;102904.97;5044338;28;20032;-80
2023/05/30 03:10:39;;;;;;;0.10;0.10;;;;;;;13.13;60.89;102898.78;5034498;28;20092;-78
2023/05/30 03:13:05;;;;;;;0.10;0.10;;;;;;;13.18;60.71;102897.88;5031335;28;20033;-79
2023/05/30 03:15:31;;;;;;;0.20;0.20;;;;;;;13.24;60.52;102897.03;5044094;28;20026;-77
2023/05/30 03:17:58;;;;;;;0.10;0.10;;;;;;;13.30;60.06;102901.50;5043552;28;20487;-78
2023/05/30 03:20:25;;;;;;;0.10;0.10;;;;;;;13.34;60.18;102896.16;5040901;28;20048;-79
2023/05/30 03:22:51;;;;;;;0.10;0.10;;;;;;;13.40;60.97;102903.31;5046456;28;20204;-80
2023/05/30 03:25:17;;;;;;;0.10;0.10;;;;;;;13.44;60.51;102897.09;5045011;28;20030;-80
2023/05/30 03:27:50;;;;;;;0.22;0.22;;;;;;;13.48;60.79;102901.50;5038361;28;20086;-78
2023/05/30 03:30:18;;;;;;;0.10;0.10;;;;;;;13.51;60.05;102900.66;5032471;28;20056;-79
2023/05/30 03:32:44;;;;;;;0.00;0.00;;;;;;;13.53;60.12;102905.09;5043278;28;20061;-79
2023/05/30 03:35:10;;;;;;;0.10;0.10;;;;;;;13.52;60.66;102903.31;5048117;28;20033;-79
2023/05/30 03:37:36;;;;;;;0.10;0.10;;;;;;;13.54;60.38;102901.53;5047534;28;20029;-78
2023/05/30 03:40:05;;;;;;;0.10;0.10;;;;;;;13.57;60.70;102905.97;5046551;28;20029;-78
2023/05/30 03:42:31;;;;;;;0.10;0.10;;;;;;;13.58;61.08;102903.31;5044247;28;20029;-78
2023/05/30 03:44:57;;;;;;;0.10;0.10;;;;;;;13.63;60.32;102907.75;5054478;28;20048;-79
2023/05/30 03:47:23;;;;;;;0.10;0.10;;;;;;;13.64;60.40;102914.84;5043857;28;20422;-78
2023/05/30 03:49:49;;;;;;;0.10;0.10;;;;;;;13.65;60.76;102919.31;5044736;28;20040;-80
2023/05/30 03:52:16;;;;;;;0.10;0.10;;;;;;;13.66;60.67;102915.75;5044389;28;20033;-78
2023/05/30 03:54:42;;;;;;;0.10;0.10;;;;;;;13.67;60.23;102910.44;5049135;28;20017;-77
2023/05/30 03:57:08;;;;;;;0.03;0.03;;;;;;;13.69;60.23;102911.28;5048993;28;20036;-80
2023/05/30 03:59:35;;;;;;;0.10;0.10;;;;;;;13.75;60.01;102913.09;5047558;28;20056;-79
2023/05/30 04:02:01;;;;;;;0.10;0.10;;;;;;;13.78;60.43;102910.41;5052386;28;20041;-79
2023/05/30 04:04:27;;;;;;;0.10;0.10;;;;;;;13.83;59.87;102921.97;5042923;28;20033;-79
2023/05/30 04:06:53;;;;;;;0.10;0.10;;;;;;;13.85;59.71;102912.19;5046816;28;20037;-78
2023/05/30 04:09:20;;;;;;;0.00;0.00;;;;;;;13.88;60.20;102920.19;5047312;28;20022;-79
2023/05/30 04:11:46;;;;;;;0.05;0.05;;;;;;;13.94;59.72;102923.75;5043053;28;20043;-78
2023/05/30 04:14:12;;;;;;;0.10;0.10;;;;;;;13.97;59.97;102926.38;5040264;28;20088;-80
2023/05/30 04:16:38;;;;;;;0.20;0.20;;;;;;;14.00;59.64;102919.28;5046629;28;20033;-78
2023/05/30 04:19:05;;;;;;;0.00;0.00;;;;;;;14.05;59.99;102913.94;5047457;28;20027;-80
2023/05/30 04:21:31;;;;;;;0.10;0.10;;;;;;;14.10;60.05;102917.50;5041531;28;20399;-79
2023/05/30 04:23:57;;;;;;;0.00;0.00;;;;;;;14.12;60.13;102921.06;5036419;28;20048;-78
2023/05/30 04:26:25;;;;;;;0.10;0.10;;;;;;;14.16;59.88;102914.81;5036734;28;20025;-77
2023/05/30 04:28:54;;;;;;;0.10;0.10;;;;;;;14.21;59.63;102920.16;5043667;28;20043;-78
2023/05/30 04:31:22;;;;;;;0.00;0.00;;;;;;;14.22;59.96;102917.47;5042697;28;20034;-76
2023/05/30 04:33:50;;;;;;;0.10;0.10;;;;;;;14.29;59.70;102925.47;5040365;28;20048;-77
2023/05/30 04:36:19;;;;;;;1.17;1.17;;;;;;;14.31;59.36;102931.69;5044671;28;20032;-78
2023/05/30 04:38:48;;;;;;;0.10;0.10;;;;;;;14.34;59.68;102931.66;5039241;28;20116;-78
2023/05/30 04:41:18;;;;;;;0.10;0.10;;;;;;;14.32;59.64;102928.13;5040995;28;20037;-79
2023/05/30 04:44:03;;;;;;;2.40;1.00;;;;;;;14.32;59.70;102928.13;5043716;28;20025;-77
2023/05/30 04:46:29;;;;;;;0.10;0.10;;;;;;;14.28;59.56;102937.00;5040750;28;20134;-78
2023/05/30 04:49:00;;;;;;;0.10;0.10;;;;;;;14.27;59.57;102929.91;5042748;28;20030;-77
2023/05/30 04:51:27;;;;;;;1.27;1.27;;;;;;;14.30;59.53;102936.13;5041073;28;20029;-79
2023/05/30 04:53:53;;;;;;;0.55;0.55;;;;;;;14.32;59.45;102929.00;5043601;28;20184;-79
2023/05/30 04:56:20;;;;;;;0.03;0.03;;;;;;;14.37;59.30;102921.88;5041872;28;20057;-78
2023/05/30 04:58:48;;;;;;;0.10;0.10;;;;;;;14.43;59.13;102925.41;5044809;28;20045;-79
2023/05/30 05:01:14;;;;;;;0.00;0.00;;;;;;;14.46;58.63;102926.31;5041544;28;20136;-79
2023/05/30 05:03:41;;;;;;;0.10;0.10;;;;;;;14.45;58.90;102927.19;5040413;28;20364;-77
2023/05/30 05:06:08;;;;;;;0.10;0.10;;;;;;;14.51;58.71;102928.97;5042354;28;20048;-76
2023/05/30 05:08:35;;;;;;;0.47;0.47;;;;;;;14.51;58.67;102935.16;5038714;28;20021;-78
2023/05/30 05:11:04;;;;;;;0.05;0.05;;;;;;;14.53;58.79;102940.53;5038984;28;20375;-76
2023/05/30 05:13:31;;;;;;;0.52;0.52;;;;;;;14.54;58.87;102939.59;5036844;28;20064;-77
2023/05/30 05:15:57;;;;;;;0.10;0.10;;;;;;;14.55;58.79;102936.97;5044019;28;20108;-77
2023/05/30 05:18:24;;;;;;;0.10;0.10;;;;;;;14.62;58.81;102931.59;5041970;28;20052;-78
2023/05/30 05:20:50;;;;;;;0.08;0.08;;;;;;;14.68;58.62;102929.81;5038300;28;20025;-78
2023/05/30 05:23:17;;;;;;;0.40;0.40;;;;;;;14.70;58.88;102935.16;5042329;28;20033;-78
2023/05/30 05:25:43;;;;;;;0.10;0.10;;;;;;;14.76;58.54;102934.25;5039729;28;20034;-77
2023/05/30 05:28:10;;;;;;;0.00;0.00;;;;;;;14.78;58.36;102932.44;5038397;28;20033;-76
2023/05/30 05:30:37;;;;;;;0.10;0.10;;;;;;;14.82;58.50;102936.88;5038980;28;20030;-79
2023/05/30 05:33:03;;;;;;;0.00;0.00;;;;;;;14.86;58.34;102928.84;5039378;28;20021;-77
2023/05/30 05:35:29;;;;;;;0.20;0.20;;;;;;;14.93;58.38;102931.47;5034891;28;20113;-77
2023/05/30 05:37:55;;;;;;;1.17;1.05;;;;;;;14.98;57.49;102929.72;5045728;28;20033;-76
2023/05/30 05:40:22;;;;;;;0.00;0.00;;;;;;;15.01;57.49;102929.69;5042877;28;20165;-77
2023/05/30 05:42:48;;;;;;;0.43;0.43;;;;;;;14.99;56.59;102928.78;5044397;28;20060;-78
2023/05/30 05:45:14;;;;;;;0.00;0.00;;;;;;;15.07;56.99;102934.09;5041980;28;20026;-78
2023/05/30 05:47:40;;;;;;;0.03;0.03;;;;;;;15.06;56.44;102925.19;5039407;28;20028;-78
2023/05/30 05:50:06;;;;;;;0.43;0.43;;;;;;;15.16;56.50;102929.56;5037804;28;20094;-79
2023/05/30 05:52:33;;;;;;;0.10;0.10;;;;;;;15.21;56.03;102932.22;5034363;28;20060;-80
2023/05/30 05:54:59;;;;;;;0.20;0.20;;;;;;;15.18;54.95;102933.13;5034347;28;20025;-76
2023/05/30 05:57:25;;;;;;;0.10;0.10;;;;;;;15.19;56.24;102928.69;5035836;28;20028;-79
2023/05/30 05:59:51;;;;;;;0.10;0.10;;;;;;;15.24;55.58;102936.66;5040876;28;20045;-77
2023/05/30 06:02:20;;;;;;;0.10;0.10;;;;;;;15.35;55.22;102934.81;5036013;28;20033;-78
2023/05/30 06:04:47;;;;;;;3.72;1.88;;;;;;;15.43;55.30;102937.44;5027429;28;20593;-78
2023/05/30 06:07:13;;;;;;;0.05;0.05;;;;;;;15.55;55.33;102936.47;5032429;28;20114;-78
2023/05/30 06:09:39;;;;;;;1.27;0.40;;;;;;;15.63;53.97;102940.84;5026462;28;20037;-78
2023/05/30 06:12:07;;;;;;;0.00;0.00;;;;;;;15.69;53.97;102935.47;5046829;28;20021;-77
2023/05/30 06:14:33;;;;;;;0.47;0.35;;;;;;;15.79;54.10;102938.94;5045349;28;20049;-76
2023/05/30 06:16:59;;;;;;;0.13;0.13;;;;;;;15.89;53.68;102944.22;5047043;28;20490;-77
2023/05/30 06:19:25;;;;;;;0.10;0.10;;;;;;;15.98;53.85;102936.16;5045454;28;20026;-78
2023/05/30 06:21:51;;;;;;;0.10;0.10;;;;;;;15.98;53.12;102929.00;5038046;28;20554;-78
2023/05/30 06:24:17;;;;;;;0.10;0.10;;;;;;;16.00;53.25;102923.66;5036189;28;20030;-77
2023/05/30 06:26:43;;;;;;;0.10;0.10;;;;;;;16.09;53.14;102933.38;5033580;28;20052;-77
2023/05/30 06:29:10;;;;;;;0.10;0.10;;;;;;;16.13;52.84;102935.97;5036583;28;20053;-78
2023/05/30 06:31:36;;;;;;;0.10;0.10;;;;;;;16.25;52.98;102934.09;5036922;28;20025;-78
2023/05/30 06:34:02;;;;;;;0.10;0.10;;;;;;;16.32;53.19;102930.44;5037776;28;20037;-78
2023/05/30 06:36:28;;;;;;;0.17;0.17;;;;;;;16.43;52.51;102930.34;5041768;28;20041;-78
2023/05/30 06:38:54;;;;;;;0.03;0.03;;;;;;;16.43;52.21;102928.53;5043246;28;20032;-76
2023/05/30 06:41:22;;;;;;;0.20;0.20;;;;;;;16.50;52.77;102932.91;5040362;28;20034;-77
2023/05/30 06:43:48;;;;;;;0.10;0.10;;;;;;;16.59;52.53;102945.31;5044513;28;20017;-78
2023/05/30 06:46:15;;;;;;;0.00;0.00;;;;;;;16.54;52.13;102948.97;5044150;28;20068;-77
2023/05/30 06:48:41;;;;;;;0.15;0.15;;;;;;;16.49;52.17;102949.88;5046102;28;20028;-77
2023/05/30 06:51:07;;;;;;;0.20;0.20;;;;;;;16.44;51.93;102949.03;5045427;28;20045;-78
2023/05/30 06:53:33;;;;;;;0.90;0.90;;;;;;;16.49;51.66;102955.22;5043934;28;20048;-77
2023/05/30 06:55:59;;;;;;;0.10;0.10;;;;;;;16.60;52.02;102951.56;5041065;28;20056;-78
2023/05/30 06:58:25;;;;;;;0.10;0.10;;;;;;;16.61;51.64;102950.63;5036503;28;20029;-78
2023/05/30 07:00:51;;;;;;;0.10;0.10;;;;;;;16.64;51.74;102947.94;5042558;28;20032;-77
2023/05/30 07:03:18;;;;;;;0.13;0.13;;;;;;;16.56;51.51;102945.34;5044080;28;20089;-78
2023/05/30 07:05:44;;;;;;;0.10;0.10;;;;;;;16.65;51.27;102955.06;5040429;28;21220;-78
2023/05/30 07:08:10;;;;;;;0.10;0.10;;;;;;;16.73;51.42;102946.94;5041465;28;20164;-79
2023/05/30 07:10:37;;;;;;;0.10;0.10;;;;;;;16.80;51.41;102945.97;5041111;28;20040;-78
2023/05/30 07:13:03;;;;;;;0.10;0.10;;;;;;;16.94;51.39;102945.81;5041754;28;20055;-76
2023/05/30 07:15:31;;;;;;;0.52;0.35;;;;;;;17.04;50.83;102942.09;5041192;28;20025;-76
2023/05/30 07:17:57;;;;;;;0.00;0.00;;;;;;;17.17;50.37;102940.16;5041524;28;20545;-76
2023/05/30 07:20:23;;;;;;;0.20;0.20;;;;;;;17.37;50.73;102949.66;5040588;28;20021;-79
2023/05/30 07:22:50;;;;;;;0.20;0.20;;;;;;;17.44;50.22;102952.22;5037382;28;20034;-77
2023/05/30 07:25:16;;;;;;;0.03;0.03;;;;;;;17.54;50.07;102952.09;5033776;28;20447;-77
2023/05/30 07:27:42;;;;;;;0.68;0.68;;;;;;;17.60;49.73;102946.66;5033267;28;20025;-78
2023/05/30 07:30:09;;;;;;;1.33;1.23;;;;;;;17.72;50.03;102957.16;5035053;28;20593;-77
2023/05/30 07:32:35;;;;;;;0.75;0.75;;;;;;;17.58;49.12;102956.50;5030612;28;20053;-76
2023/05/30 07:35:01;;;;;;;0.10;0.10;;;;;;;17.62;49.11;102948.41;5031937;28;20071;-76
2023/05/30 07:37:27;;;;;;;0.00;0.00;;;;;;;17.62;49.68;102951.06;5031529;28;20036;-76
2023/05/30 07:39:53;;;;;;;0.10;0.10;;;;;;;17.65;49.81;102952.81;5032378;28;20029;-75
2023/05/30 07:42:19;;;;;;;0.10;0.10;;;;;;;17.64;49.20;102943.00;5030698;28;20040;-75
2023/05/30 07:44:45;;;;;;;0.17;0.17;;;;;;;17.68;49.35;102949.19;5033437;28;20113;-74
2023/05/30 07:47:11;;;;;;;0.05;0.05;;;;;;;17.63;49.25;102941.22;5035767;28;20021;-75
2023/05/30 07:49:37;;;;;;;0.10;0.10;;;;;;;17.61;49.25;102953.78;5032002;28;20041;-75
2023/05/30 07:52:04;;;;;;;0.10;0.10;;;;;;;17.58;49.26;102944.00;5032093;28;20022;-76
2023/05/30 07:54:30;;;;;;;0.10;0.10;;;;;;;17.58;49.42;102949.34;5031207;28;20056;-76
2023/05/30 07:56:56;;;;;;;0.00;0.00;;;;;;;17.48;49.20;102949.53;5030627;28;20116;-76
2023/05/30 07:59:22;;;;;;;0.08;0.08;;;;;;;17.41;49.49;102957.66;5030480;28;20021;-76
2023/05/30 08:01:48;;;;;;;0.45;0.45;;;;;;;17.40;49.51;102947.84;5030594;28;20025;-76
2023/05/30 08:04:14;;;;;;;0.75;0.63;;;;;;;17.42;50.05;102948.72;5029885;28;20057;-76
2023/05/30 08:06:41;;;;;;;0.10;0.10;;;;;;;17.40;49.65;102950.50;5026038;28;20045;-76
2023/05/30 08:09:07;;;;;;;0.00;0.00;;;;;;;17.42;49.72;102946.03;5030159;28;20068;-77
2023/05/30 08:11:33;;;;;;;0.00;0.00;;;;;;;17.49;49.99;102952.16;5028491;28;20096;-76
2023/05/30 08:13:59;;;;;;;0.10;0.10;;;;;;;17.62;49.16;102947.53;5028814;28;20033;-77
2023/05/30 08:16:26;;;;;;;0.45;0.45;;;;;;;17.78;49.38;102935.63;5031666;28;20044;-75
2023/05/30 08:18:52;;;;;;;0.10;0.10;;;;;;;18.02;49.55;102933.47;5034716;28;20426;-77
2023/05/30 08:21:18;;;;;;;0.10;0.10;;;;;;;18.21;48.86;102930.44;5030059;28;20025;-77
2023/05/30 08:23:45;;;;;;;0.08;0.08;;;;;;;18.16;47.67;102941.25;5038688;28;20033;-76
2023/05/30 08:26:11;;;;;;;1.10;1.08;;;;;;;18.08;48.06;102930.66;5037812;28;20021;-78
2023/05/30 08:28:38;;;;;;;0.00;0.00;;;;;;;17.91;48.26;102930.06;5034870;28;20025;-78
2023/05/30 08:31:05;;;;;;;0.35;0.35;;;;;;;17.79;48.78;102932.03;5036502;28;20117;-77
2023/05/30 08:33:34;;;;;;;0.08;0.08;;;;;;;17.73;48.56;102926.78;5041587;28;20032;-77
2023/05/30 08:36:00;;;;;;;0.10;0.10;;;;;;;17.67;48.83;102926.88;5035553;28;20017;-76
2023/05/30 08:38:26;;;;;;;0.45;0.45;;;;;;;17.43;48.68;102928.16;5031809;28;20049;-77
2023/05/30 08:40:53;;;;;;;0.13;0.13;;;;;;;17.44;49.08;102933.47;5031552;28;20115;-77
2023/05/30 08:43:20;;;;;;;0.20;0.20;;;;;;;17.55;49.16;102935.13;5034073;28;20029;-78
2023/05/30 08:45:50;;;;;;;0.10;0.10;;;;;;;17.74;49.63;102924.97;5032979;28;20025;-79
2023/05/30 08:48:18;;;;;;;0.00;0.00;;;;;;;17.96;48.75;102917.47;5043035;28;20018;-78
2023/05/30 08:50:44;;;;;;;0.10;0.10;;;;;;;18.05;47.37;102927.16;5043620;28;20033;-79
2023/05/30 08:53:13;;;;;;;0.00;0.00;;;;;;;18.07;47.09;102923.53;5042498;28;20096;-77
2023/05/30 08:55:45;;;;;;;0.82;0.82;;;;;;;18.13;47.83;102918.97;5040708;28;20053;-78
2023/05/30 08:58:22;;;;;;;0.10;0.10;;;;;;;18.29;48.24;102917.75;5036676;28;20030;-79
2023/05/30 09:00:50;;;;;;;0.63;0.63;;;;;;;18.34;47.96;102910.47;5041459;28;20017;-77
2023/05/30 09:03:18;;;;;;;0.10;0.10;;;;;;;18.42;47.89;102915.72;5043626;28;20041;-77
2023/05/30 09:05:45;;;;;;;0.35;0.35;;;;;;;18.48;48.17;102903.97;5039643;28;20041;-77
2023/05/30 09:08:13;;;;;;;0.15;0.15;;;;;;;18.59;48.46;102908.22;5038992;28;20025;-78
2023/05/30 09:10:47;;;;;;;0.05;0.05;;;;;;;18.60;47.19;102898.34;5037962;28;20068;-78
2023/05/30 09:13:15;;;;;;;0.10;0.10;;;;;;;18.60;47.40;102906.38;5041655;28;20079;-79
2023/05/30 09:15:41;;;;;;;0.30;0.30;;;;;;;18.58;47.19;102900.19;5044843;28;20018;-79
2023/05/30 09:18:08;;;;;;;0.10;0.10;;;;;;;18.65;47.42;102903.63;5044116;28;20040;-79
2023/05/30 09:20:36;;;;;;;0.20;0.20;;;;;;;18.69;47.29;102903.53;5045456;28;20036;-79
2023/05/30 09:23:03;;;;;;;0.10;0.10;;;;;;;18.73;46.47;102898.97;5046842;28;20097;-77
2023/05/30 09:25:44;;;;;;;0.25;0.25;;;;;;;18.91;47.25;102901.25;5045853;28;20037;-77
2023/05/30 09:28:11;;;;;;;0.10;0.10;;;;;;;18.95;47.08;102888.66;5046837;28;20049;-79
2023/05/30 09:30:54;;;;;;;1.88;1.10;;;;;;;19.24;46.90;102905.94;5045174;28;20055;-77
2023/05/30 09:33:20;;;;;;;0.10;0.10;;;;;;;19.30;46.89;102904.88;5040824;28;20025;-77
2023/05/30 09:35:51;;;;;;;0.08;0.08;;;;;;;19.24;45.53;102895.19;5036859;28;20021;-78
2023/05/30 09:38:20;;;;;;;0.43;0.43;;;;;;;19.12;45.92;102904.41;5041540;28;20025;-80
2023/05/30 09:40:50;;;;;;;0.88;0.47;;;;;;;18.98;45.69;102901.13;5042287;28;20034;-79
2023/05/30 09:43:34;;;;;;;0.10;0.10;;;;;;;18.94;45.53;102897.66;5043664;28;20033;-79
2023/05/30 09:46:03;;;;;;;0.10;0.10;;;;;;;18.92;46.54;102899.47;5037535;28;20025;-79
2023/05/30 09:48:29;;;;;;;0.10;0.10;;;;;;;18.96;47.14;102901.16;5043764;28;20028;-79
2023/05/30 09:51:00;;;;;;;0.77;0.77;;;;;;;18.97;45.94;102897.56;5047385;28;20494;-78
2023/05/30 09:53:29;;;;;;;0.55;0.55;;;;;;;19.12;46.65;102898.16;5045154;28;20037;-82
2023/05/30 09:55:56;;;;;;;0.10;0.10;;;;;;;19.11;46.64;102899.94;5044140;28;20029;-81
2023/05/30 09:58:24;;;;;;;0.10;0.10;;;;;;;19.19;46.27;102897.06;5045593;28;20021;-80
2023/05/30 10:00:52;;;;;;;0.10;0.10;;;;;;;19.16;46.25;102894.47;5035496;28;20510;-81
2023/05/30 10:03:21;;;;;;;0.57;0.57;;;;;;;19.16;46.52;102891.78;5046017;28;20029;-81
2023/05/30 10:05:47;;;;;;;0.10;0.10;;;;;;;19.25;46.74;102896.91;5048303;28;20060;-81
2023/05/30 10:08:14;;;;;;;0.17;0.17;;;;;;;19.35;46.95;102900.28;5041902;28;20052;-80
2023/05/30 10:10:41;;;;;;;0.17;0.17;;;;;;;19.43;46.22;102892.91;5043558;28;20052;-81
2023/05/30 10:13:07;;;;;;;0.00;0.00;;;;;;;19.46;46.51;102898.19;5045467;28;20048;-80
2023/05/30 10:15:34;;;;;;;0.20;0.20;;;;;;;19.66;46.58;102896.81;5045659;28;20033;-81
2023/05/30 10:18:06;;;;;;;0.43;0.43;;;;;;;19.81;46.24;102891.06;5045148;28;20100;-81
2023/05/30 10:20:34;;;;;;;;;;;;;;;19.92;46.05;102895.31;5047511;28;20075;-80
2023/05/30 10:23:06;;;;;;;0.20;0.20;;;;;;;19.94;46.36;102886.25;5043636;28;19913;-79
2023/05/30 10:25:34;;;;;;;0.10;0.10;;;;;;;19.99;45.79;102889.72;5046823;28;20021;-78
2023/05/30 10:28:03;;;;;;;0.00;0.00;;;;;;;20.04;46.13;102881.53;5041657;28;20030;-78
2023/05/30 10:30:32;;;;;;;0.10;0.10;;;;;;;20.06;45.65;102878.78;5047529;28;20030;-78
2023/05/30 10:33:14;;;;;;;0.00;0.00;;;;;;;20.19;45.35;102881.06;5050495;28;20039;-76
2023/05/30 10:35:42;;;;;;;;;;;;;;;20.29;44.67;102881.69;5048153;28;20044;-78
2023/05/30 10:38:11;;;;;;;1.52;0.85;;;;;;;20.39;45.77;102876.94;5044598;28;19918;-77
2023/05/30 10:46:21;;;;;;;0.40;0.40;;;;;;;20.89;44.34;102881.75;5105221;27;20360;-78
2023/05/30 10:49:02;;;;;;;0.10;0.10;;;;;;;20.69;43.42;102885.91;5086566;28;20029;-79
2023/05/30 10:51:28;;;;;;;0.00;0.00;;;;;;;20.78;44.33;102883.91;5088980;28;20036;-79
2023/05/30 10:53:57;;;;;;;0.10;0.10;;;;;;;20.68;44.90;102876.06;5091495;28;20032;-79
2023/05/30 10:59:17;;;;;;;0.00;0.00;;;;;;;21.23;44.61;102869.88;5168179;27;20395;-78
2023/05/30 11:02:04;;;;;;;0.25;0.25;;;;;;;21.44;43.55;102872.81;5175076;27;20038;-79
2023/05/30 11:04:35;;;;;;;0.00;0.00;;;;;;;21.38;43.25;102864.94;5171873;27;20030;-79
2023/05/30 11:07:04;;;;;;;0.20;0.20;;;;;;;21.36;44.01;102874.88;5159087;27;20110;-78
2023/05/30 11:09:30;;;;;;;0.13;0.13;;;;;;;21.34;44.35;102866.84;5154002;27;20023;-79
2023/05/30 11:11:58;;;;;;;0.10;0.10;;;;;;;21.47;44.50;102870.00;5152149;27;20054;-78
2023/05/30 11:14:30;;;;;;;0.10;0.10;;;;;;;21.57;43.79;102866.09;5151618;27;20019;-79
2023/05/30 11:17:02;;;;;;;0.20;0.20;;;;;;;21.67;43.78;102857.69;5153108;27;20110;-78
2023/05/30 11:19:37;;;;;;;0.10;0.10;;;;;;;21.76;43.67;102860.94;5152688;27;20057;-78
2023/05/30 11:22:22;;;;;;;0.10;0.10;;;;;;;21.76;43.95;102860.06;5152607;27;20513;-78
2023/05/30 11:25:25;;;;;;;0.30;0.30;;;;;;;21.79;43.60;102862.66;5150149;27;20091;-78
2023/05/30 11:30:46;;;;;;;0.10;0.10;;;;;;;21.75;43.86;102864.56;5107349;27;20401;-78
2023/05/30 11:33:14;;;;;;;0.20;0.20;;;;;;;21.50;44.26;102861.81;5098644;28;20032;-77
2023/05/30 11:35:46;;;;;;;0.00;0.00;;;;;;;21.46;45.12;102862.88;5096979;28;20054;-79
2023/05/30 11:38:24;;;;;;;0.17;0.17;;;;;;;21.52;45.75;102868.06;5082688;28;20028;-78
2023/05/30 11:40:50;;;;;;;0.25;0.25;;;;;;;21.52;45.30;102875.25;5073675;28;20080;-78
2023/05/30 11:43:17;;;;;;;0.10;0.10;;;;;;;21.41;45.41;102872.91;5082055;28;20482;-78
2023/05/30 11:45:49;;;;;;;0.10;0.10;;;;;;;21.23;45.23;102869.03;5081288;28;20037;-77
2023/05/30 11:48:17;;;;;;;0.05;0.05;;;;;;;20.98;45.58;102865.28;5089124;28;20035;-77